sensor_id;sensor_type;location;lat;lon;timestamp;temperature;humidity
13694;DHT22;6919;52.344;14.518;2022-07-12T00:00:10;14.40;1.00
13694;DHT22;6919;52.344;14.518;2022-07-12T00:02:39;14.30;1.00
13694;DHT22;6919;52.344;14.518;2022-07-12T00:05:08;14.20;1.00
13694;DHT22;6919;52.344;14.518;2022-07-12T00:07:36;14.10;1.00
13694;DHT22;6919;52.344;14.518;2022-07-12T00:10:04;14.00;1.00
13694;DHT22;6919;52.344;14.518;2022-07-12T00:12:33;13.90;1.00
13694;DHT22;6919;52.344;14.518;2022-07-12T00:15:04;13.80;1.00
13694;DHT22;6919;52.344;14.518;2022-07-12T00:17:33;13.70;1.00
13694;DHT22;6919;52.344;14.518;2022-07-12T00:20:01;13.60;1.00
13694;DHT22;6919;52.344;14.518;2022-07-12T00:22:30;13.60;10.50
13694;DHT22;6919;52.344;14.518;2022-07-12T00:24:58;13.60;15.70
13694;DHT22;6919;52.344;14.518;2022-07-12T00:27:27;13.60;11.00
13694;DHT22;6919;52.344;14.518;2022-07-12T00:29:55;13.60;17.20
13694;DHT22;6919;52.344;14.518;2022-07-12T00:32:25;13.60;13.80
13694;DHT22;6919;52.344;14.518;2022-07-12T00:34:53;13.60;8.20
13694;DHT22;6919;52.344;14.518;2022-07-12T00:37:21;13.60;5.50
13694;DHT22;6919;52.344;14.518;2022-07-12T00:39:50;13.60;9.70
13694;DHT22;6919;52.344;14.518;2022-07-12T00:42:18;13.50;11.70
13694;DHT22;6919;52.344;14.518;2022-07-12T00:44:46;13.50;6.60
13694;DHT22;6919;52.344;14.518;2022-07-12T00:47:28;13.50;7.70
13694;DHT22;6919;52.344;14.518;2022-07-12T00:50:00;13.40;8.80
13694;DHT22;6919;52.344;14.518;2022-07-12T00:52:28;13.30;11.40
13694;DHT22;6919;52.344;14.518;2022-07-12T00:54:57;13.30;15.50
13694;DHT22;6919;52.344;14.518;2022-07-12T00:57:25;13.20;15.80
13694;DHT22;6919;52.344;14.518;2022-07-12T00:59:54;13.10;15.80
13694;DHT22;6919;52.344;14.518;2022-07-12T01:02:22;13.10;21.70
13694;DHT22;6919;52.344;14.518;2022-07-12T01:04:53;13.10;24.90
13694;DHT22;6919;52.344;14.518;2022-07-12T01:07:22;13.10;24.10
13694;DHT22;6919;52.344;14.518;2022-07-12T01:09:51;13.00;22.10
13694;DHT22;6919;52.344;14.518;2022-07-12T01:12:22;12.90;25.50
13694;DHT22;6919;52.344;14.518;2022-07-12T01:14:52;12.90;35.20
13694;DHT22;6919;52.344;14.518;2022-07-12T01:17:24;12.90;32.10
13694;DHT22;6919;52.344;14.518;2022-07-12T01:19:56;12.90;32.10
13694;DHT22;6919;52.344;14.518;2022-07-12T01:22:27;12.90;29.40
13694;DHT22;6919;52.344;14.518;2022-07-12T01:25:02;12.80;28.20
13694;DHT22;6919;52.344;14.518;2022-07-12T01:27:33;12.70;32.70
13694;DHT22;6919;52.344;14.518;2022-07-12T01:30:02;12.70;35.10
13694;DHT22;6919;52.344;14.518;2022-07-12T01:32:31;12.60;40.80
13694;DHT22;6919;52.344;14.518;2022-07-12T01:35:03;12.60;47.20
13694;DHT22;6919;52.344;14.518;2022-07-12T01:37:34;12.60;53.10
13694;DHT22;6919;52.344;14.518;2022-07-12T01:40:07;12.70;54.10
13694;DHT22;6919;52.344;14.518;2022-07-12T01:42:38;12.70;52.50
13694;DHT22;6919;52.344;14.518;2022-07-12T01:45:07;12.80;49.90
13694;DHT22;6919;52.344;14.518;2022-07-12T01:47:36;12.80;45.20
13694;DHT22;6919;52.344;14.518;2022-07-12T01:50:08;12.80;44.60
13694;DHT22;6919;52.344;14.518;2022-07-12T01:52:39;12.70;43.20
13694;DHT22;6919;52.344;14.518;2022-07-12T01:55:11;12.70;42.30
13694;DHT22;6919;52.344;14.518;2022-07-12T01:57:41;12.80;40.50
13694;DHT22;6919;52.344;14.518;2022-07-12T02:00:12;12.70;41.90
13694;DHT22;6919;52.344;14.518;2022-07-12T02:02:41;12.70;35.50
13694;DHT22;6919;52.344;14.518;2022-07-12T02:05:13;12.70;34.70
13694;DHT22;6919;52.344;14.518;2022-07-12T02:07:41;12.70;40.40
13694;DHT22;6919;52.344;14.518;2022-07-12T02:10:11;12.70;42.80
13694;DHT22;6919;52.344;14.518;2022-07-12T02:12:39;12.70;45.20
13694;DHT22;6919;52.344;14.518;2022-07-12T02:15:08;12.70;46.60
13694;DHT22;6919;52.344;14.518;2022-07-12T02:17:38;12.60;47.00
13694;DHT22;6919;52.344;14.518;2022-07-12T02:20:09;12.60;51.30
13694;DHT22;6919;52.344;14.518;2022-07-12T02:22:39;12.60;53.70
13694;DHT22;6919;52.344;14.518;2022-07-12T02:25:07;12.60;51.10
13694;DHT22;6919;52.344;14.518;2022-07-12T02:27:38;12.50;44.70
13694;DHT22;6919;52.344;14.518;2022-07-12T02:30:08;12.40;41.00
13694;DHT22;6919;52.344;14.518;2022-07-12T02:32:37;12.40;40.30
13694;DHT22;6919;52.344;14.518;2022-07-12T02:35:06;12.30;45.30
13694;DHT22;6919;52.344;14.518;2022-07-12T02:37:35;12.30;48.00
13694;DHT22;6919;52.344;14.518;2022-07-12T02:40:04;12.30;59.80
13694;DHT22;6919;52.344;14.518;2022-07-12T02:42:52;12.30;44.20
13694;DHT22;6919;52.344;14.518;2022-07-12T02:45:21;12.20;50.20
13694;DHT22;6919;52.344;14.518;2022-07-12T02:47:49;12.20;56.30
13694;DHT22;6919;52.344;14.518;2022-07-12T02:50:17;12.20;61.40
13694;DHT22;6919;52.344;14.518;2022-07-12T02:52:45;12.20;63.60
13694;DHT22;6919;52.344;14.518;2022-07-12T02:55:13;12.10;49.90
13694;DHT22;6919;52.344;14.518;2022-07-12T02:57:42;12.10;56.00
13694;DHT22;6919;52.344;14.518;2022-07-12T03:00:12;12.20;63.40
13694;DHT22;6919;52.344;14.518;2022-07-12T03:02:41;12.20;59.20
13694;DHT22;6919;52.344;14.518;2022-07-12T03:05:11;12.20;48.80
13694;DHT22;6919;52.344;14.518;2022-07-12T03:07:40;12.20;47.40
13694;DHT22;6919;52.344;14.518;2022-07-12T03:10:08;12.20;56.70
13694;DHT22;6919;52.344;14.518;2022-07-12T03:12:37;12.20;66.00
13694;DHT22;6919;52.344;14.518;2022-07-12T03:15:06;12.20;47.30
13694;DHT22;6919;52.344;14.518;2022-07-12T03:17:36;12.20;49.80
13694;DHT22;6919;52.344;14.518;2022-07-12T03:20:05;12.40;70.50
13694;DHT22;6919;52.344;14.518;2022-07-12T03:22:37;12.50;47.50
13694;DHT22;6919;52.344;14.518;2022-07-12T03:25:06;12.50;35.80
13694;DHT22;6919;52.344;14.518;2022-07-12T03:27:35;12.60;29.10
13694;DHT22;6919;52.344;14.518;2022-07-12T03:30:10;12.60;23.20
13694;DHT22;6919;52.344;14.518;2022-07-12T03:32:40;12.60;31.60
13694;DHT22;6919;52.344;14.518;2022-07-12T03:35:09;12.60;29.30
13694;DHT22;6919;52.344;14.518;2022-07-12T03:37:41;12.60;27.50
13694;DHT22;6919;52.344;14.518;2022-07-12T03:40:12;12.70;37.50
13694;DHT22;6919;52.344;14.518;2022-07-12T03:42:41;12.90;30.00
13694;DHT22;6919;52.344;14.518;2022-07-12T03:45:11;13.00;24.40
13694;DHT22;6919;52.344;14.518;2022-07-12T03:47:42;13.10;20.60
13694;DHT22;6919;52.344;14.518;2022-07-12T03:50:12;13.10;17.30
13694;DHT22;6919;52.344;14.518;2022-07-12T03:52:41;13.20;17.30
13694;DHT22;6919;52.344;14.518;2022-07-12T03:55:11;13.40;14.30
13694;DHT22;6919;52.344;14.518;2022-07-12T03:57:40;13.50;8.30
13694;DHT22;6919;52.344;14.518;2022-07-12T04:00:09;13.60;1.80
13694;DHT22;6919;52.344;14.518;2022-07-12T04:02:40;13.70;1.00
13694;DHT22;6919;52.344;14.518;2022-07-12T04:05:11;13.90;1.00
13694;DHT22;6919;52.344;14.518;2022-07-12T04:07:40;14.00;1.00
13694;DHT22;6919;52.344;14.518;2022-07-12T04:10:09;14.10;1.00
13694;DHT22;6919;52.344;14.518;2022-07-12T04:12:37;14.20;1.00
13694;DHT22;6919;52.344;14.518;2022-07-12T04:15:07;14.50;1.00
13694;DHT22;6919;52.344;14.518;2022-07-12T04:17:35;14.60;1.00
13694;DHT22;6919;52.344;14.518;2022-07-12T04:20:07;14.80;1.00
13694;DHT22;6919;52.344;14.518;2022-07-12T04:22:37;15.00;1.00
13694;DHT22;6919;52.344;14.518;2022-07-12T04:25:07;15.20;1.00
13694;DHT22;6919;52.344;14.518;2022-07-12T04:27:36;15.30;1.00
13694;DHT22;6919;52.344;14.518;2022-07-12T04:30:06;15.50;99.90
13694;DHT22;6919;52.344;14.518;2022-07-12T04:32:35;15.70;99.90
13694;DHT22;6919;52.344;14.518;2022-07-12T04:35:05;15.80;1.00
13694;DHT22;6919;52.344;14.518;2022-07-12T04:37:34;16.00;1.00
13694;DHT22;6919;52.344;14.518;2022-07-12T04:40:03;16.20;1.00
13694;DHT22;6919;52.344;14.518;2022-07-12T04:42:32;16.40;11.10
13694;DHT22;6919;52.344;14.518;2022-07-12T04:45:00;16.50;99.90
13694;DHT22;6919;52.344;14.518;2022-07-12T04:47:28;16.60;99.90
13694;DHT22;6919;52.344;14.518;2022-07-12T04:49:56;16.80;1.00
13694;DHT22;6919;52.344;14.518;2022-07-12T04:52:26;16.90;99.90
13694;DHT22;6919;52.344;14.518;2022-07-12T04:54:54;17.10;1.00
13694;DHT22;6919;52.344;14.518;2022-07-12T04:57:22;17.20;1.00
13694;DHT22;6919;52.344;14.518;2022-07-12T04:59:51;17.40;79.60
13694;DHT22;6919;52.344;14.518;2022-07-12T05:02:19;17.60;1.00
13694;DHT22;6919;52.344;14.518;2022-07-12T05:04:47;17.60;1.00
13694;DHT22;6919;52.344;14.518;2022-07-12T05:07:15;17.80;99.90
13694;DHT22;6919;52.344;14.518;2022-07-12T05:09:45;17.90;99.90
13694;DHT22;6919;52.344;14.518;2022-07-12T05:12:13;18.10;99.90
13694;DHT22;6919;52.344;14.518;2022-07-12T05:14:41;18.10;97.60
13694;DHT22;6919;52.344;14.518;2022-07-12T05:17:10;18.30;12.80
13694;DHT22;6919;52.344;14.518;2022-07-12T05:19:38;18.40;1.00
13694;DHT22;6919;52.344;14.518;2022-07-12T05:22:06;18.50;1.00
13694;DHT22;6919;52.344;14.518;2022-07-12T05:24:34;18.70;1.00
13694;DHT22;6919;52.344;14.518;2022-07-12T05:27:04;19.00;1.00
13694;DHT22;6919;52.344;14.518;2022-07-12T05:29:33;19.30;1.00
13694;DHT22;6919;52.344;14.518;2022-07-12T05:32:01;19.50;1.00
13694;DHT22;6919;52.344;14.518;2022-07-12T05:34:37;19.70;1.00
13694;DHT22;6919;52.344;14.518;2022-07-12T05:37:05;19.90;1.00
13694;DHT22;6919;52.344;14.518;2022-07-12T05:39:34;19.90;1.00
13694;DHT22;6919;52.344;14.518;2022-07-12T05:42:11;20.30;1.00
13694;DHT22;6919;52.344;14.518;2022-07-12T05:44:39;20.30;1.00
13694;DHT22;6919;52.344;14.518;2022-07-12T05:47:08;20.40;1.00
13694;DHT22;6919;52.344;14.518;2022-07-12T05:49:36;20.40;1.00
13694;DHT22;6919;52.344;14.518;2022-07-12T05:52:04;20.40;99.90
13694;DHT22;6919;52.344;14.518;2022-07-12T05:54:50;20.40;1.00
13694;DHT22;6919;52.344;14.518;2022-07-12T05:57:19;20.60;99.90
13694;DHT22;6919;52.344;14.518;2022-07-12T05:59:48;20.30;99.90
13694;DHT22;6919;52.344;14.518;2022-07-12T06:02:16;20.40;99.90
13694;DHT22;6919;52.344;14.518;2022-07-12T06:04:44;20.60;99.90
13694;DHT22;6919;52.344;14.518;2022-07-12T06:07:17;20.80;99.90
13694;DHT22;6919;52.344;14.518;2022-07-12T06:09:45;20.40;99.90
13694;DHT22;6919;52.344;14.518;2022-07-12T06:12:13;20.40;99.90
13694;DHT22;6919;52.344;14.518;2022-07-12T06:14:43;20.40;99.90
13694;DHT22;6919;52.344;14.518;2022-07-12T06:17:18;20.30;99.90
13694;DHT22;6919;52.344;14.518;2022-07-12T06:19:48;20.40;99.90
13694;DHT22;6919;52.344;14.518;2022-07-12T06:22:16;20.80;99.90
13694;DHT22;6919;52.344;14.518;2022-07-12T06:24:44;21.00;99.90
13694;DHT22;6919;52.344;14.518;2022-07-12T06:27:12;20.90;99.90
13694;DHT22;6919;52.344;14.518;2022-07-12T06:29:40;21.50;99.90
13694;DHT22;6919;52.344;14.518;2022-07-12T06:32:14;21.70;99.90
13694;DHT22;6919;52.344;14.518;2022-07-12T06:34:43;21.50;99.90
13694;DHT22;6919;52.344;14.518;2022-07-12T06:37:11;21.20;99.90
13694;DHT22;6919;52.344;14.518;2022-07-12T06:39:41;21.20;99.90
13694;DHT22;6919;52.344;14.518;2022-07-12T06:42:10;21.20;99.90
13694;DHT22;6919;52.344;14.518;2022-07-12T06:44:38;21.10;99.90
13694;DHT22;6919;52.344;14.518;2022-07-12T06:47:08;20.90;99.90
13694;DHT22;6919;52.344;14.518;2022-07-12T06:49:36;20.90;99.90
13694;DHT22;6919;52.344;14.518;2022-07-12T06:52:05;20.60;99.90
13694;DHT22;6919;52.344;14.518;2022-07-12T06:54:34;20.70;99.90
13694;DHT22;6919;52.344;14.518;2022-07-12T06:57:03;21.10;99.90
13694;DHT22;6919;52.344;14.518;2022-07-12T06:59:31;21.40;99.90
13694;DHT22;6919;52.344;14.518;2022-07-12T07:01:59;21.70;99.90
13694;DHT22;6919;52.344;14.518;2022-07-12T07:04:30;22.00;99.90
13694;DHT22;6919;52.344;14.518;2022-07-12T07:06:58;22.30;99.90
13694;DHT22;6919;52.344;14.518;2022-07-12T07:09:27;22.60;99.90
13694;DHT22;6919;52.344;14.518;2022-07-12T07:11:55;22.80;99.90
13694;DHT22;6919;52.344;14.518;2022-07-12T07:14:23;23.00;99.90
13694;DHT22;6919;52.344;14.518;2022-07-12T07:16:53;23.00;99.90
13694;DHT22;6919;52.344;14.518;2022-07-12T07:19:21;23.00;99.90
13694;DHT22;6919;52.344;14.518;2022-07-12T07:21:52;23.20;99.90
13694;DHT22;6919;52.344;14.518;2022-07-12T07:24:22;23.60;99.90
13694;DHT22;6919;52.344;14.518;2022-07-12T07:26:50;23.90;99.90
13694;DHT22;6919;52.344;14.518;2022-07-12T07:29:24;23.70;99.90
13694;DHT22;6919;52.344;14.518;2022-07-12T07:32:10;23.70;99.90
13694;DHT22;6919;52.344;14.518;2022-07-12T07:34:38;23.70;99.90
13694;DHT22;6919;52.344;14.518;2022-07-12T07:37:09;23.90;99.90
13694;DHT22;6919;52.344;14.518;2022-07-12T07:39:38;23.80;99.90
13694;DHT22;6919;52.344;14.518;2022-07-12T07:42:06;23.90;99.90
13694;DHT22;6919;52.344;14.518;2022-07-12T07:44:35;24.00;99.90
13694;DHT22;6919;52.344;14.518;2022-07-12T07:47:23;24.00;99.90
13694;DHT22;6919;52.344;14.518;2022-07-12T07:49:55;24.10;99.90
13694;DHT22;6919;52.344;14.518;2022-07-12T07:52:27;24.00;99.90
13694;DHT22;6919;52.344;14.518;2022-07-12T07:54:56;24.10;99.90
13694;DHT22;6919;52.344;14.518;2022-07-12T07:57:24;23.80;99.90
13694;DHT22;6919;52.344;14.518;2022-07-12T07:59:53;23.70;99.90
13694;DHT22;6919;52.344;14.518;2022-07-12T08:02:22;23.50;99.90
13694;DHT22;6919;52.344;14.518;2022-07-12T08:04:50;23.40;99.90
13694;DHT22;6919;52.344;14.518;2022-07-12T08:07:19;23.10;99.90
13694;DHT22;6919;52.344;14.518;2022-07-12T08:10:09;23.20;99.90
13694;DHT22;6919;52.344;14.518;2022-07-12T08:12:38;23.60;99.90
13694;DHT22;6919;52.344;14.518;2022-07-12T08:15:08;23.70;99.90
13694;DHT22;6919;52.344;14.518;2022-07-12T08:17:45;23.80;99.90
13694;DHT22;6919;52.344;14.518;2022-07-12T08:20:20;23.70;99.90
13694;DHT22;6919;52.344;14.518;2022-07-12T08:23:09;24.10;99.90
13694;DHT22;6919;52.344;14.518;2022-07-12T08:25:40;24.00;99.90
13694;DHT22;6919;52.344;14.518;2022-07-12T08:28:08;24.10;99.90
13694;DHT22;6919;52.344;14.518;2022-07-12T08:30:36;24.30;99.90
13694;DHT22;6919;52.344;14.518;2022-07-12T08:33:11;24.50;99.90
13694;DHT22;6919;52.344;14.518;2022-07-12T08:35:40;24.60;99.90
13694;DHT22;6919;52.344;14.518;2022-07-12T08:38:08;24.00;99.90
13694;DHT22;6919;52.344;14.518;2022-07-12T08:40:37;24.00;99.90
13694;DHT22;6919;52.344;14.518;2022-07-12T08:43:06;24.00;99.90
13694;DHT22;6919;52.344;14.518;2022-07-12T08:45:35;24.20;99.90
13694;DHT22;6919;52.344;14.518;2022-07-12T08:48:04;24.00;99.90
13694;DHT22;6919;52.344;14.518;2022-07-12T08:50:34;24.20;99.90
13694;DHT22;6919;52.344;14.518;2022-07-12T08:53:11;24.60;99.90
13694;DHT22;6919;52.344;14.518;2022-07-12T08:55:40;24.60;99.90
13694;DHT22;6919;52.344;14.518;2022-07-12T08:58:16;24.90;99.90
13694;DHT22;6919;52.344;14.518;2022-07-12T09:00:45;25.10;99.90
13694;DHT22;6919;52.344;14.518;2022-07-12T09:03:17;25.40;99.90
13694;DHT22;6919;52.344;14.518;2022-07-12T09:05:50;25.50;99.30
13694;DHT22;6919;52.344;14.518;2022-07-12T09:08:27;25.60;97.20
13694;DHT22;6919;52.344;14.518;2022-07-12T09:10:58;25.50;96.10
13694;DHT22;6919;52.344;14.518;2022-07-12T09:13:50;25.50;95.10
13694;DHT22;6919;52.344;14.518;2022-07-12T09:16:21;25.20;93.50
13694;DHT22;6919;52.344;14.518;2022-07-12T09:19:11;24.80;92.80
13694;DHT22;6919;52.344;14.518;2022-07-12T09:21:47;25.00;93.50
13694;DHT22;6919;52.344;14.518;2022-07-12T09:24:17;25.20;95.10
13694;DHT22;6919;52.344;14.518;2022-07-12T09:26:47;25.60;99.90
13694;DHT22;6919;52.344;14.518;2022-07-12T09:29:16;25.30;93.90
13694;DHT22;6919;52.344;14.518;2022-07-12T09:31:47;25.10;92.90
13694;DHT22;6919;52.344;14.518;2022-07-12T09:34:39;25.10;92.30
13694;DHT22;6919;52.344;14.518;2022-07-12T09:37:26;25.10;93.20
13694;DHT22;6919;52.344;14.518;2022-07-12T09:39:55;25.10;99.90
13694;DHT22;6919;52.344;14.518;2022-07-12T09:42:23;25.00;92.60
13694;DHT22;6919;52.344;14.518;2022-07-12T09:44:56;24.90;91.60
13694;DHT22;6919;52.344;14.518;2022-07-12T09:47:26;25.00;92.10
13694;DHT22;6919;52.344;14.518;2022-07-12T09:49:55;25.20;90.90
13694;DHT22;6919;52.344;14.518;2022-07-12T09:52:25;24.70;89.70
13694;DHT22;6919;52.344;14.518;2022-07-12T09:54:55;24.60;89.20
13694;DHT22;6919;52.344;14.518;2022-07-12T09:57:26;24.50;90.20
13694;DHT22;6919;52.344;14.518;2022-07-12T09:59:59;24.80;92.10
13694;DHT22;6919;52.344;14.518;2022-07-12T10:02:29;25.30;92.70
13694;DHT22;6919;52.344;14.518;2022-07-12T10:05:00;25.30;91.10
13694;DHT22;6919;52.344;14.518;2022-07-12T10:07:32;25.70;90.30
13694;DHT22;6919;52.344;14.518;2022-07-12T10:10:00;26.30;87.70
13694;DHT22;6919;52.344;14.518;2022-07-12T10:12:29;26.70;81.90
13694;DHT22;6919;52.344;14.518;2022-07-12T10:15:02;27.00;79.60
13694;DHT22;6919;52.344;14.518;2022-07-12T10:17:32;26.60;73.40
13694;DHT22;6919;52.344;14.518;2022-07-12T10:20:16;26.40;72.00
13694;DHT22;6919;52.344;14.518;2022-07-12T10:22:49;26.10;69.80
13694;DHT22;6919;52.344;14.518;2022-07-12T10:25:32;26.20;68.50
13694;DHT22;6919;52.344;14.518;2022-07-12T10:28:02;26.90;69.20
13694;DHT22;6919;52.344;14.518;2022-07-12T10:30:41;26.80;63.30
13694;DHT22;6919;52.344;14.518;2022-07-12T10:33:18;26.90;61.70
13694;DHT22;6919;52.344;14.518;2022-07-12T10:36:01;26.50;57.40
13694;DHT22;6919;52.344;14.518;2022-07-12T10:38:35;26.30;57.60
13694;DHT22;6919;52.344;14.518;2022-07-12T10:41:16;26.60;63.10
13694;DHT22;6919;52.344;14.518;2022-07-12T10:43:46;27.10;59.70
13694;DHT22;6919;52.344;14.518;2022-07-12T10:46:34;27.20;57.20
13694;DHT22;6919;52.344;14.518;2022-07-12T10:49:23;27.20;53.90
13694;DHT22;6919;52.344;14.518;2022-07-12T10:52:13;26.60;52.50
13694;DHT22;6919;52.344;14.518;2022-07-12T10:54:55;26.00;52.10
13694;DHT22;6919;52.344;14.518;2022-07-12T10:57:49;26.20;53.80
13694;DHT22;6919;52.344;14.518;2022-07-12T11:00:19;26.60;53.30
13694;DHT22;6919;52.344;14.518;2022-07-12T11:02:49;26.60;51.70
13694;DHT22;6919;52.344;14.518;2022-07-12T11:05:25;26.30;48.80
13694;DHT22;6919;52.344;14.518;2022-07-12T11:07:54;26.00;48.60
13694;DHT22;6919;52.344;14.518;2022-07-12T11:10:25;25.80;48.70
13694;DHT22;6919;52.344;14.518;2022-07-12T11:12:53;25.90;50.20
13694;DHT22;6919;52.344;14.518;2022-07-12T11:15:22;26.20;52.80
13694;DHT22;6919;52.344;14.518;2022-07-12T11:17:50;26.80;50.70
13694;DHT22;6919;52.344;14.518;2022-07-12T11:20:19;27.20;49.00
13694;DHT22;6919;52.344;14.518;2022-07-12T11:22:48;27.40;46.40
13694;DHT22;6919;52.344;14.518;2022-07-12T11:25:18;27.60;44.40
13694;DHT22;6919;52.344;14.518;2022-07-12T11:27:48;27.70;41.80
13694;DHT22;6919;52.344;14.518;2022-07-12T11:30:17;27.20;38.70
13694;DHT22;6919;52.344;14.518;2022-07-12T11:32:45;27.00;38.90
13694;DHT22;6919;52.344;14.518;2022-07-12T11:35:22;26.80;39.00
13694;DHT22;6919;52.344;14.518;2022-07-12T11:37:54;27.00;38.30
13694;DHT22;6919;52.344;14.518;2022-07-12T11:40:25;27.10;37.70
13694;DHT22;6919;52.344;14.518;2022-07-12T11:42:58;27.30;37.80
13694;DHT22;6919;52.344;14.518;2022-07-12T11:45:29;26.90;36.40
13694;DHT22;6919;52.344;14.518;2022-07-12T11:48:00;26.70;37.60
13694;DHT22;6919;52.344;14.518;2022-07-12T11:50:29;27.10;37.70
13694;DHT22;6919;52.344;14.518;2022-07-12T11:53:02;27.50;39.80
13694;DHT22;6919;52.344;14.518;2022-07-12T11:55:31;27.30;36.70
13694;DHT22;6919;52.344;14.518;2022-07-12T11:58:13;26.60;35.60
13694;DHT22;6919;52.344;14.518;2022-07-12T12:00:42;26.50;37.60
13694;DHT22;6919;52.344;14.518;2022-07-12T12:03:11;26.20;37.30
13694;DHT22;6919;52.344;14.518;2022-07-12T12:05:41;26.30;38.40
13694;DHT22;6919;52.344;14.518;2022-07-12T12:08:10;26.70;38.80
13694;DHT22;6919;52.344;14.518;2022-07-12T12:10:41;27.20;39.50
13694;DHT22;6919;52.344;14.518;2022-07-12T12:13:16;27.40;38.40
13694;DHT22;6919;52.344;14.518;2022-07-12T12:15:49;27.10;35.10
13694;DHT22;6919;52.344;14.518;2022-07-12T12:18:30;27.30;34.60
13694;DHT22;6919;52.344;14.518;2022-07-12T12:21:03;27.40;33.80
13694;DHT22;6919;52.344;14.518;2022-07-12T12:23:33;28.00;33.40
13694;DHT22;6919;52.344;14.518;2022-07-12T12:26:10;28.00;33.60
13694;DHT22;6919;52.344;14.518;2022-07-12T12:28:48;27.80;31.60
13694;DHT22;6919;52.344;14.518;2022-07-12T12:31:19;27.80;30.00
13694;DHT22;6919;52.344;14.518;2022-07-12T12:33:49;27.90;29.70
13694;DHT22;6919;52.344;14.518;2022-07-12T12:36:20;28.20;30.00
13694;DHT22;6919;52.344;14.518;2022-07-12T12:38:51;28.20;28.30
13694;DHT22;6919;52.344;14.518;2022-07-12T12:41:20;27.40;28.10
13694;DHT22;6919;52.344;14.518;2022-07-12T12:43:59;27.20;28.30
13694;DHT22;6919;52.344;14.518;2022-07-12T12:46:51;27.40;28.70
13694;DHT22;6919;52.344;14.518;2022-07-12T12:49:44;27.50;29.00
13694;DHT22;6919;52.344;14.518;2022-07-12T12:52:19;28.00;28.40
13694;DHT22;6919;52.344;14.518;2022-07-12T12:54:48;28.50;28.50
13694;DHT22;6919;52.344;14.518;2022-07-12T12:57:16;28.00;27.00
13694;DHT22;6919;52.344;14.518;2022-07-12T12:59:46;27.70;27.60
13694;DHT22;6919;52.344;14.518;2022-07-12T13:02:14;27.40;26.30
13694;DHT22;6919;52.344;14.518;2022-07-12T13:04:42;27.30;26.70
13694;DHT22;6919;52.344;14.518;2022-07-12T13:07:11;27.30;27.70
13694;DHT22;6919;52.344;14.518;2022-07-12T13:09:40;27.80;26.90
13694;DHT22;6919;52.344;14.518;2022-07-12T13:12:09;28.60;26.00
13694;DHT22;6919;52.344;14.518;2022-07-12T13:14:37;29.40;23.20
13694;DHT22;6919;52.344;14.518;2022-07-12T13:17:07;30.50;20.70
13694;DHT22;6919;52.344;14.518;2022-07-12T13:19:35;30.80;17.30
13694;DHT22;6919;52.344;14.518;2022-07-12T13:22:04;30.50;29.60
13694;DHT22;6919;52.344;14.518;2022-07-12T13:24:32;29.30;14.50
13694;DHT22;6919;52.344;14.518;2022-07-12T13:27:01;29.00;14.40
13694;DHT22;6919;52.344;14.518;2022-07-12T13:29:29;29.80;14.90
13694;DHT22;6919;52.344;14.518;2022-07-12T13:31:57;30.70;13.40
13694;DHT22;6919;52.344;14.518;2022-07-12T13:34:27;31.50;12.70
13694;DHT22;6919;52.344;14.518;2022-07-12T13:36:55;31.80;9.10
13694;DHT22;6919;52.344;14.518;2022-07-12T13:39:23;32.30;4.70
13694;DHT22;6919;52.344;14.518;2022-07-12T13:42:09;32.50;2.10
13694;DHT22;6919;52.344;14.518;2022-07-12T13:44:37;31.60;1.00
13694;DHT22;6919;52.344;14.518;2022-07-12T13:47:05;31.50;1.00
13694;DHT22;6919;52.344;14.518;2022-07-12T13:49:35;30.50;1.00
13694;DHT22;6919;52.344;14.518;2022-07-12T13:52:04;29.40;1.00
13694;DHT22;6919;52.344;14.518;2022-07-12T13:54:34;30.10;2.40
13694;DHT22;6919;52.344;14.518;2022-07-12T13:57:03;31.40;1.20
13694;DHT22;6919;52.344;14.518;2022-07-12T13:59:32;31.20;1.00
13694;DHT22;6919;52.344;14.518;2022-07-12T14:02:00;31.40;1.00
13694;DHT22;6919;52.344;14.518;2022-07-12T14:04:28;32.10;1.00
13694;DHT22;6919;52.344;14.518;2022-07-12T14:06:58;32.50;1.00
13694;DHT22;6919;52.344;14.518;2022-07-12T14:09:27;32.80;1.00
13694;DHT22;6919;52.344;14.518;2022-07-12T14:11:55;31.60;1.00
13694;DHT22;6919;52.344;14.518;2022-07-12T14:14:23;31.80;1.00
13694;DHT22;6919;52.344;14.518;2022-07-12T14:17:08;32.10;1.00
13694;DHT22;6919;52.344;14.518;2022-07-12T14:19:36;33.00;1.00
13694;DHT22;6919;52.344;14.518;2022-07-12T14:22:06;32.80;1.00
13694;DHT22;6919;52.344;14.518;2022-07-12T14:24:34;32.80;1.00
13694;DHT22;6919;52.344;14.518;2022-07-12T14:27:02;33.30;1.00
13694;DHT22;6919;52.344;14.518;2022-07-12T14:29:32;33.60;1.00
13694;DHT22;6919;52.344;14.518;2022-07-12T14:32:00;33.60;1.00
13694;DHT22;6919;52.344;14.518;2022-07-12T14:34:29;33.60;1.00
13694;DHT22;6919;52.344;14.518;2022-07-12T14:36:57;33.40;1.00
13694;DHT22;6919;52.344;14.518;2022-07-12T14:39:26;33.20;1.00
13694;DHT22;6919;52.344;14.518;2022-07-12T14:41:55;32.60;1.00
13694;DHT22;6919;52.344;14.518;2022-07-12T14:44:23;31.40;1.00
13694;DHT22;6919;52.344;14.518;2022-07-12T14:46:52;31.10;1.00
13694;DHT22;6919;52.344;14.518;2022-07-12T14:49:21;31.10;1.00
13694;DHT22;6919;52.344;14.518;2022-07-12T14:51:49;30.30;1.00
13694;DHT22;6919;52.344;14.518;2022-07-12T14:54:18;30.30;1.00
13694;DHT22;6919;52.344;14.518;2022-07-12T14:56:47;29.90;1.00
13694;DHT22;6919;52.344;14.518;2022-07-12T14:59:19;29.30;1.00
13694;DHT22;6919;52.344;14.518;2022-07-12T15:01:49;29.70;1.00
13694;DHT22;6919;52.344;14.518;2022-07-12T15:04:18;30.50;1.00
13694;DHT22;6919;52.344;14.518;2022-07-12T15:06:46;31.30;1.00
13694;DHT22;6919;52.344;14.518;2022-07-12T15:09:14;31.60;1.00
13694;DHT22;6919;52.344;14.518;2022-07-12T15:11:42;31.30;1.00
13694;DHT22;6919;52.344;14.518;2022-07-12T15:14:12;31.90;1.00
13694;DHT22;6919;52.344;14.518;2022-07-12T15:16:40;32.10;1.00
13694;DHT22;6919;52.344;14.518;2022-07-12T15:19:08;31.70;1.00
13694;DHT22;6919;52.344;14.518;2022-07-12T15:21:36;30.70;1.00
13694;DHT22;6919;52.344;14.518;2022-07-12T15:24:04;30.50;1.00
13694;DHT22;6919;52.344;14.518;2022-07-12T15:26:33;30.10;1.00
13694;DHT22;6919;52.344;14.518;2022-07-12T15:29:02;30.30;1.00
13694;DHT22;6919;52.344;14.518;2022-07-12T15:31:32;30.30;1.00
13694;DHT22;6919;52.344;14.518;2022-07-12T15:34:01;29.90;1.00
13694;DHT22;6919;52.344;14.518;2022-07-12T15:36:29;29.90;1.00
13694;DHT22;6919;52.344;14.518;2022-07-12T15:43:05;29.30;1.00
13694;DHT22;6919;52.344;14.518;2022-07-12T15:45:34;28.50;1.00
13694;DHT22;6919;52.344;14.518;2022-07-12T15:48:03;28.30;1.00
13694;DHT22;6919;52.344;14.518;2022-07-12T15:50:32;28.50;1.00
13694;DHT22;6919;52.344;14.518;2022-07-12T15:53:00;29.00;1.00
13694;DHT22;6919;52.344;14.518;2022-07-12T15:55:46;29.00;1.00
13694;DHT22;6919;52.344;14.518;2022-07-12T15:58:14;29.30;1.00
13694;DHT22;6919;52.344;14.518;2022-07-12T16:00:42;29.30;1.00